createdAt,value
2023-03-29T00:01:12.375Z,9.11
2023-03-29T00:04:02.506Z,9.11
2023-03-29T00:06:33.144Z,9.09
2023-03-29T00:09:01.818Z,9.05
2023-03-29T00:11:29.798Z,9.09
2023-03-29T00:13:57.597Z,9.09
2023-03-29T00:16:25.544Z,9.06
2023-03-29T00:18:53.424Z,9.07
2023-03-29T00:21:21.202Z,9.06
2023-03-29T00:23:50.521Z,9.06
2023-03-29T00:26:18.273Z,9.06
2023-03-29T00:28:46.044Z,9.07
2023-03-29T00:31:15.516Z,9.05
2023-03-29T00:33:44.175Z,9.06
2023-03-29T00:36:13.493Z,9.07
2023-03-29T00:38:41.628Z,9.07
2023-03-29T00:41:11.648Z,9.07
2023-03-29T00:44:00.785Z,9.08
2023-03-29T00:46:30.608Z,9.03
2023-03-29T00:49:01.960Z,9.02
2023-03-29T00:51:34.228Z,9.06
2023-03-29T00:54:04.578Z,9.06
2023-03-29T00:56:37.451Z,9.06
2023-03-29T00:59:08.012Z,9.07
2023-03-29T01:01:42.159Z,9.07
2023-03-29T01:04:18.375Z,9.06
2023-03-29T01:06:49.593Z,9.01
2023-03-29T01:09:21.057Z,9.05
2023-03-29T01:11:55.350Z,9.01
2023-03-29T01:14:30.931Z,9.04
2023-03-29T01:16:59.456Z,9.01
2023-03-29T01:19:33.962Z,9.00
2023-03-29T01:22:13.509Z,9.00
2023-03-29T01:24:56.600Z,9.00
2023-03-29T01:27:40.315Z,8.99
2023-03-29T01:30:14.170Z,8.99
2023-03-29T01:32:48.822Z,8.98
2023-03-29T01:35:22.224Z,8.98
2023-03-29T01:37:57.152Z,8.97
2023-03-29T01:40:28.128Z,8.99
2023-03-29T01:43:05.533Z,8.98
2023-03-29T01:45:37.830Z,8.97
2023-03-29T01:48:11.999Z,8.98
2023-03-29T01:50:46.129Z,8.97
2023-03-29T01:53:20.128Z,8.98
2023-03-29T01:55:52.845Z,8.99
2023-03-29T01:58:24.874Z,8.98
2023-03-29T02:00:55.336Z,8.98
2023-03-29T02:03:26.655Z,8.97
2023-03-29T02:05:56.172Z,8.97
2023-03-29T02:08:24.267Z,8.95
2023-03-29T02:10:52.840Z,8.95
2023-03-29T02:13:22.115Z,8.97
2023-03-29T02:15:49.937Z,8.97
2023-03-29T02:18:19.864Z,8.97
2023-03-29T02:20:50.059Z,8.97
2023-03-29T02:23:23.471Z,8.96
2023-03-29T02:25:53.552Z,8.96
2023-03-29T02:28:24.422Z,8.96
2023-03-29T02:30:57.622Z,8.97
2023-03-29T02:33:31.180Z,8.98
2023-03-29T02:36:04.383Z,8.97
2023-03-29T02:38:33.251Z,8.96
2023-03-29T02:41:02.469Z,8.92
2023-03-29T02:43:33.782Z,8.99
2023-03-29T02:46:02.575Z,8.97
2023-03-29T02:48:31.977Z,8.96
2023-03-29T02:51:04.459Z,8.97
2023-03-29T02:53:38.941Z,8.98
2023-03-29T02:56:07.760Z,8.97
2023-03-29T02:58:36.910Z,8.96
2023-03-29T03:01:06.845Z,8.98
2023-03-29T03:03:35.848Z,8.99
2023-03-29T03:06:03.749Z,8.98
2023-03-29T03:08:32.188Z,8.98
2023-03-29T03:11:00.249Z,8.96
2023-03-29T03:13:28.110Z,8.97
2023-03-29T03:15:57.334Z,8.94
2023-03-29T03:18:25.106Z,8.93
2023-03-29T03:20:56.917Z,8.92
2023-03-29T03:23:25.066Z,8.94
2023-03-29T03:25:53.696Z,8.95
2023-03-29T03:28:22.096Z,8.91
2023-03-29T03:30:49.977Z,8.91
2023-03-29T03:33:19.411Z,8.93
2023-03-29T03:35:47.976Z,8.93
2023-03-29T03:38:16.673Z,8.93
2023-03-29T03:40:44.464Z,8.92
2023-03-29T03:43:12.666Z,8.92
2023-03-29T03:45:40.442Z,8.85
2023-03-29T03:48:08.722Z,8.92
2023-03-29T03:50:38.326Z,8.92
2023-03-29T03:53:06.091Z,8.92
2023-03-29T03:55:34.569Z,8.93
2023-03-29T03:58:02.338Z,8.93
2023-03-29T04:00:30.087Z,8.91
2023-03-29T04:02:57.915Z,8.91
2023-03-29T04:05:25.803Z,8.90
2023-03-29T04:07:56.131Z,8.90
2023-03-29T04:10:23.873Z,8.90
2023-03-29T04:12:51.622Z,8.92
2023-03-29T04:15:20.334Z,8.90
2023-03-29T04:17:48.182Z,8.80
2023-03-29T04:20:16.663Z,8.90
2023-03-29T04:22:44.424Z,8.92
2023-03-29T04:25:13.601Z,8.90
2023-03-29T04:27:41.668Z,8.90
2023-03-29T04:30:11.004Z,8.90
2023-03-29T04:32:39.053Z,8.90
2023-03-29T04:35:08.019Z,8.88
2023-03-29T04:37:35.823Z,8.91
2023-03-29T04:40:09.556Z,8.90
2023-03-29T04:42:39.009Z,8.91
2023-03-29T04:45:08.048Z,8.91
2023-03-29T04:47:36.606Z,8.90
2023-03-29T04:50:05.006Z,8.90
2023-03-29T04:52:33.394Z,8.89
2023-03-29T04:55:01.495Z,8.89
2023-03-29T04:57:29.837Z,8.88
2023-03-29T04:59:58.983Z,8.90
2023-03-29T05:02:27.133Z,8.91
2023-03-29T05:04:54.995Z,8.89
2023-03-29T05:07:22.991Z,8.91
2023-03-29T05:09:50.736Z,8.91
2023-03-29T05:12:18.496Z,8.91
2023-03-29T05:14:46.773Z,8.93
2023-03-29T05:17:15.842Z,8.92
2023-03-29T05:19:44.518Z,8.94
2023-03-29T05:22:12.324Z,8.94
2023-03-29T05:24:40.099Z,8.93
2023-03-29T05:27:07.855Z,8.91
2023-03-29T05:29:35.615Z,8.94
2023-03-29T05:32:03.406Z,8.94
2023-03-29T05:34:32.598Z,8.94
2023-03-29T05:37:01.561Z,8.97
2023-03-29T05:39:29.445Z,8.95
2023-03-29T05:41:57.173Z,8.96
2023-03-29T05:44:24.930Z,8.96
2023-03-29T05:46:53.116Z,8.96
2023-03-29T05:49:21.536Z,8.94
2023-03-29T05:51:52.060Z,8.94
2023-03-29T05:54:19.863Z,8.96
2023-03-29T05:56:47.689Z,8.96
2023-03-29T05:59:15.506Z,8.96
2023-03-29T06:01:45.386Z,8.95
2023-03-29T06:04:13.448Z,8.95
2023-03-29T06:06:41.676Z,8.96
2023-03-29T06:09:10.852Z,8.97
2023-03-29T06:11:39.295Z,8.92
2023-03-29T06:14:07.688Z,8.96
2023-03-29T06:16:36.427Z,8.92
2023-03-29T06:19:05.339Z,8.94
2023-03-29T06:21:33.075Z,8.96
2023-03-29T06:24:01.224Z,8.96
2023-03-29T06:26:30.636Z,8.98
2023-03-29T06:28:58.508Z,9.01
2023-03-29T06:31:26.544Z,9.16
2023-03-29T06:33:54.361Z,9.30
2023-03-29T06:36:22.390Z,9.50
2023-03-29T06:38:50.170Z,9.65
2023-03-29T06:41:17.962Z,9.88
2023-03-29T06:43:47.038Z,10.07
2023-03-29T06:46:15.037Z,10.27
2023-03-29T06:48:42.904Z,10.34
2023-03-29T06:51:10.674Z,10.31
2023-03-29T06:53:38.515Z,10.17
2023-03-29T06:56:09.381Z,10.04
2023-03-29T06:58:37.971Z,9.92
2023-03-29T07:01:07.744Z,9.79
2023-03-29T07:03:36.364Z,9.72
2023-03-29T07:06:09.958Z,9.63
2023-03-29T07:08:43.578Z,9.60
2023-03-29T07:11:13.619Z,9.55
2023-03-29T07:13:42.395Z,9.50
2023-03-29T07:16:12.841Z,9.46
2023-03-29T07:18:41.602Z,9.44
2023-03-29T07:21:10.593Z,9.42
2023-03-29T07:23:38.988Z,9.36
2023-03-29T07:26:08.136Z,9.40
2023-03-29T07:28:37.536Z,9.38
2023-03-29T07:31:06.772Z,9.37
2023-03-29T07:33:35.979Z,9.36
2023-03-29T07:36:04.882Z,9.34
2023-03-29T07:38:32.971Z,9.32
2023-03-29T07:41:04.073Z,9.30
2023-03-29T07:43:32.120Z,9.30
2023-03-29T07:46:02.081Z,9.30
2023-03-29T07:48:30.289Z,9.30
2023-03-29T07:50:59.441Z,9.28
2023-03-29T07:53:29.752Z,9.29
2023-03-29T07:55:57.716Z,9.26
2023-03-29T07:58:25.576Z,9.29
2023-03-29T08:00:53.431Z,9.28
2023-03-29T08:03:21.746Z,9.29
2023-03-29T08:05:49.564Z,9.29
2023-03-29T08:08:18.698Z,9.27
2023-03-29T08:10:46.402Z,9.28
2023-03-29T08:13:14.225Z,9.28
2023-03-29T08:15:46.352Z,9.29
2023-03-29T08:18:14.247Z,9.29
2023-03-29T08:20:42.599Z,9.36
2023-03-29T08:23:10.765Z,9.56
2023-03-29T08:25:39.889Z,9.74
2023-03-29T08:28:07.927Z,9.95
2023-03-29T08:30:36.170Z,10.16
2023-03-29T08:33:04.014Z,10.36
2023-03-29T08:35:32.280Z,10.51
2023-03-29T08:38:02.154Z,10.74
2023-03-29T08:40:31.415Z,10.90
2023-03-29T08:43:33.517Z,11.06
2023-03-29T08:46:12.884Z,11.19
2023-03-29T08:48:45.236Z,11.34
2023-03-29T08:51:21.534Z,11.40
2023-03-29T08:53:53.514Z,11.46
2023-03-29T08:56:26.210Z,11.48
2023-03-29T08:58:57.709Z,11.49
2023-03-29T09:01:29.754Z,11.53
2023-03-29T09:04:07.050Z,11.56
2023-03-29T09:06:34.849Z,11.59
2023-03-29T09:09:02.683Z,11.64
2023-03-29T09:11:49.585Z,11.69
2023-03-29T09:14:40.259Z,11.72
2023-03-29T09:17:17.914Z,11.74
2023-03-29T09:19:56.118Z,11.63
2023-03-29T09:22:31.894Z,11.45
2023-03-29T09:25:12.382Z,11.26
2023-03-29T09:27:47.423Z,11.02
2023-03-29T09:30:25.901Z,10.88
2023-03-29T09:32:55.364Z,10.75
2023-03-29T09:35:25.110Z,10.67
2023-03-29T09:37:55.009Z,10.58
2023-03-29T09:40:27.338Z,10.53
2023-03-29T09:42:56.787Z,10.62
2023-03-29T09:45:25.941Z,10.78
2023-03-29T09:47:58.083Z,10.98
2023-03-29T09:50:32.341Z,11.16
2023-03-29T09:53:00.660Z,11.39
2023-03-29T09:55:31.084Z,11.58
2023-03-29T09:58:01.933Z,11.71
2023-03-29T10:00:31.114Z,11.84
2023-03-29T10:03:00.271Z,11.94
2023-03-29T10:05:37.851Z,11.85
2023-03-29T10:08:19.836Z,11.65
2023-03-29T10:10:48.472Z,11.43
2023-03-29T10:13:24.106Z,11.26
2023-03-29T10:16:07.547Z,11.13
2023-03-29T10:18:41.613Z,11.02
2023-03-29T10:21:14.463Z,10.94
2023-03-29T10:23:43.860Z,10.90
2023-03-29T10:26:22.917Z,10.86
2023-03-29T10:28:53.943Z,10.82
2023-03-29T10:31:24.407Z,10.82
2023-03-29T10:33:54.936Z,10.79
2023-03-29T10:36:24.429Z,10.81
2023-03-29T10:38:54.190Z,10.78
2023-03-29T10:41:24.081Z,10.76
2023-03-29T10:43:52.522Z,10.75
2023-03-29T10:46:24.249Z,10.75
2023-03-29T10:48:57.439Z,10.75
2023-03-29T10:51:27.728Z,10.74
2023-03-29T10:53:55.472Z,10.75
2023-03-29T10:56:37.141Z,10.74
2023-03-29T10:59:23.142Z,10.74
2023-03-29T11:02:06.683Z,10.79
2023-03-29T11:04:44.015Z,10.88
2023-03-29T11:07:27.197Z,10.89
2023-03-29T11:10:03.347Z,10.88
2023-03-29T11:12:40.120Z,10.86
2023-03-29T11:15:34.422Z,10.86
2023-03-29T11:18:26.250Z,10.85
2023-03-29T11:20:59.249Z,10.82
2023-03-29T11:23:40.365Z,10.78
2023-03-29T11:26:16.659Z,10.87
2023-03-29T11:28:53.068Z,11.01
2023-03-29T11:31:32.685Z,11.20
2023-03-29T11:34:15.712Z,11.20
2023-03-29T11:36:52.751Z,11.09
2023-03-29T11:39:31.483Z,11.09
2023-03-29T11:42:09.313Z,11.05
2023-03-29T11:44:38.480Z,11.05
2023-03-29T11:47:12.009Z,11.04
2023-03-29T11:49:45.560Z,11.23
2023-03-29T11:52:19.323Z,11.32
2023-03-29T11:54:51.913Z,11.35
2023-03-29T11:57:24.694Z,11.38
2023-03-29T12:00:00.402Z,11.30
2023-03-29T12:02:34.591Z,11.29
2023-03-29T12:05:12.852Z,11.24
2023-03-29T12:07:48.408Z,11.26
2023-03-29T12:10:20.531Z,11.27
2023-03-29T12:12:56.366Z,11.31
2023-03-29T12:15:26.331Z,11.40
2023-03-29T12:18:03.522Z,11.38
2023-03-29T12:20:37.870Z,11.43
2023-03-29T12:23:07.003Z,11.58
2023-03-29T12:25:42.220Z,11.81
2023-03-29T12:28:26.242Z,12.05
2023-03-29T12:31:02.520Z,12.37
2023-03-29T12:33:53.035Z,12.60
2023-03-29T12:36:52.691Z,12.70
2023-03-29T12:39:22.958Z,12.65
2023-03-29T12:41:53.411Z,12.58
2023-03-29T12:44:24.214Z,12.46
2023-03-29T12:46:54.743Z,12.36
2023-03-29T12:49:29.287Z,12.26
2023-03-29T12:52:00.783Z,12.23
2023-03-29T12:54:31.860Z,12.18
2023-03-29T12:57:02.671Z,12.14
2023-03-29T12:59:39.379Z,12.10
2023-03-29T13:02:27.169Z,12.09
2023-03-29T13:04:56.808Z,12.07
2023-03-29T13:07:46.339Z,12.03
2023-03-29T13:10:38.991Z,12.01
2023-03-29T13:13:16.560Z,12.01
2023-03-29T13:15:45.710Z,12.18
2023-03-29T13:18:32.226Z,12.19
2023-03-29T13:21:05.772Z,12.12
2023-03-29T13:23:45.881Z,12.34
2023-03-29T13:26:30.031Z,12.22
2023-03-29T13:29:22.528Z,12.24
2023-03-29T13:31:57.358Z,12.15
2023-03-29T13:34:36.623Z,12.13
2023-03-29T13:37:12.977Z,12.09
2023-03-29T13:39:50.704Z,12.07
2023-03-29T13:42:21.652Z,12.05
2023-03-29T13:44:49.925Z,12.07
2023-03-29T13:47:38.154Z,12.09
2023-03-29T13:50:12.849Z,12.10
2023-03-29T13:52:45.723Z,12.24
2023-03-29T13:55:20.994Z,12.24
2023-03-29T13:57:54.301Z,12.18
2023-03-29T14:00:26.515Z,12.41
2023-03-29T14:02:58.565Z,12.38
2023-03-29T14:05:31.516Z,12.45
2023-03-29T14:08:10.723Z,12.66
2023-03-29T14:10:42.544Z,12.52
2023-03-29T14:13:13.637Z,12.42
2023-03-29T14:15:50.745Z,12.35
2023-03-29T14:18:22.247Z,12.36
2023-03-29T14:20:53.640Z,12.34
2023-03-29T14:23:24.683Z,12.42
2023-03-29T14:25:54.018Z,12.44
2023-03-29T14:28:23.861Z,12.43
2023-03-29T14:30:52.818Z,12.42
2023-03-29T14:33:28.255Z,12.47
2023-03-29T14:35:56.941Z,12.51
2023-03-29T14:38:27.051Z,12.48
2023-03-29T14:41:00.602Z,12.46
2023-03-29T14:43:32.041Z,12.51
2023-03-29T14:46:03.499Z,12.69
2023-03-29T14:48:33.202Z,12.73
2023-03-29T14:51:01.720Z,12.87
2023-03-29T14:53:32.301Z,12.82
2023-03-29T14:56:02.428Z,12.75
2023-03-29T14:58:33.512Z,12.91
2023-03-29T15:01:05.887Z,13.08
2023-03-29T15:03:44.092Z,13.11
2023-03-29T15:06:14.271Z,13.12
2023-03-29T15:08:51.129Z,13.07
2023-03-29T15:11:27.213Z,13.06
2023-03-29T15:14:05.258Z,12.99
2023-03-29T15:16:34.023Z,12.92
2023-03-29T15:19:03.128Z,13.30
2023-03-29T15:21:34.477Z,13.07
2023-03-29T15:24:04.238Z,12.97
2023-03-29T15:26:35.153Z,12.87
2023-03-29T15:29:08.533Z,12.80
2023-03-29T15:31:38.973Z,12.87
2023-03-29T15:34:09.513Z,12.85
2023-03-29T15:36:42.450Z,12.84
2023-03-29T15:39:12.998Z,12.83
2023-03-29T15:41:42.313Z,12.81
2023-03-29T15:44:10.802Z,12.80
2023-03-29T15:46:38.600Z,12.80
2023-03-29T15:49:06.350Z,12.80
2023-03-29T15:51:34.191Z,12.79
2023-03-29T15:54:02.050Z,12.79
2023-03-29T15:56:30.029Z,12.79
2023-03-29T15:58:59.166Z,12.81
2023-03-29T16:01:34.695Z,12.82
2023-03-29T16:04:03.264Z,12.82
2023-03-29T16:06:31.257Z,12.83
2023-03-29T16:08:59.182Z,12.83
2023-03-29T16:11:28.438Z,12.87
2023-03-29T16:13:56.483Z,12.85
2023-03-29T16:16:27.102Z,12.85
2023-03-29T16:18:54.906Z,12.84
2023-03-29T16:21:24.387Z,12.90
2023-03-29T16:23:52.374Z,13.01
2023-03-29T16:26:20.117Z,13.22
2023-03-29T16:28:47.820Z,13.43
2023-03-29T16:31:15.795Z,13.61
2023-03-29T16:33:44.969Z,13.80
2023-03-29T16:36:13.206Z,13.85
2023-03-29T16:38:41.596Z,13.81
2023-03-29T16:41:14.925Z,13.68
2023-03-29T16:43:42.755Z,13.62
2023-03-29T16:46:11.687Z,13.58
2023-03-29T16:48:40.021Z,13.49
2023-03-29T16:51:10.848Z,13.43
2023-03-29T16:53:38.700Z,13.35
2023-03-29T16:56:07.867Z,13.33
2023-03-29T16:58:36.199Z,13.28
2023-03-29T17:01:09.940Z,13.26
2023-03-29T17:03:37.986Z,13.23
2023-03-29T17:06:06.932Z,13.18
2023-03-29T17:08:36.690Z,13.18
2023-03-29T17:11:06.309Z,13.18
2023-03-29T17:13:34.411Z,13.15
2023-03-29T17:16:02.728Z,13.15
2023-03-29T17:18:30.870Z,13.14
2023-03-29T17:21:00.020Z,13.12
2023-03-29T17:23:27.800Z,13.12
2023-03-29T17:25:56.941Z,13.06
2023-03-29T17:28:25.055Z,13.11
2023-03-29T17:30:53.203Z,13.11
2023-03-29T17:33:22.426Z,13.11
2023-03-29T17:35:50.627Z,13.10
2023-03-29T17:38:19.379Z,13.10
2023-03-29T17:40:53.177Z,13.11
2023-03-29T17:43:22.469Z,13.10
2023-03-29T17:45:51.993Z,13.11
2023-03-29T17:48:19.936Z,13.13
2023-03-29T17:50:47.833Z,13.13
2023-03-29T17:53:15.705Z,13.15
2023-03-29T17:55:43.515Z,13.14
2023-03-29T17:58:11.740Z,13.15
2023-03-29T18:00:41.022Z,13.16
2023-03-29T18:03:08.913Z,13.16
2023-03-29T18:05:36.977Z,13.16
2023-03-29T18:08:05.155Z,13.16
2023-03-29T18:10:32.980Z,13.13
2023-03-29T18:13:01.044Z,13.12
2023-03-29T18:15:28.865Z,13.16
2023-03-29T18:17:58.296Z,13.09
2023-03-29T18:20:26.227Z,13.28
2023-03-29T18:22:54.036Z,13.44
2023-03-29T18:25:22.133Z,13.64
2023-03-29T18:27:50.080Z,13.82
2023-03-29T18:30:17.968Z,14.04
2023-03-29T18:32:45.913Z,14.21
2023-03-29T18:35:15.129Z,14.22
2023-03-29T18:37:42.891Z,14.18
2023-03-29T18:40:11.058Z,14.08
2023-03-29T18:42:38.855Z,13.99
2023-03-29T18:45:07.459Z,13.89
2023-03-29T18:47:35.278Z,13.80
2023-03-29T18:50:03.414Z,13.73
2023-03-29T18:52:32.564Z,13.66
2023-03-29T18:55:00.313Z,13.52
2023-03-29T18:57:28.169Z,13.57
2023-03-29T18:59:55.993Z,13.53
2023-03-29T19:02:23.902Z,13.49
2023-03-29T19:04:51.835Z,13.46
2023-03-29T19:07:20.623Z,13.44
2023-03-29T19:09:49.821Z,13.43
2023-03-29T19:12:17.571Z,13.41
2023-03-29T19:14:45.398Z,13.39
2023-03-29T19:17:13.215Z,13.37
2023-03-29T19:19:41.173Z,13.35
2023-03-29T19:22:09.026Z,13.35
2023-03-29T19:24:36.831Z,13.34
2023-03-29T19:27:06.469Z,13.33
2023-03-29T19:29:34.289Z,13.32
2023-03-29T19:32:02.117Z,13.31
2023-03-29T19:34:30.535Z,13.31
2023-03-29T19:37:00.247Z,13.30
2023-03-29T19:39:29.751Z,13.30
2023-03-29T19:41:57.664Z,13.28
2023-03-29T19:44:28.132Z,13.27
2023-03-29T19:46:55.889Z,13.27
2023-03-29T19:49:23.731Z,13.27
2023-03-29T19:51:54.438Z,13.25
2023-03-29T19:54:23.484Z,13.16
2023-03-29T19:56:52.694Z,13.22
2023-03-29T19:59:20.719Z,13.18
2023-03-29T20:01:51.813Z,13.22
2023-03-29T20:04:20.024Z,13.21
2023-03-29T20:06:47.834Z,13.12
2023-03-29T20:09:16.179Z,13.20
2023-03-29T20:11:44.647Z,13.03
2023-03-29T20:14:12.610Z,13.17
2023-03-29T20:16:41.724Z,13.17
2023-03-29T20:19:14.107Z,13.01
2023-03-29T20:21:42.005Z,13.15
2023-03-29T20:24:09.890Z,13.15
2023-03-29T20:26:37.837Z,13.14
2023-03-29T20:29:06.206Z,13.14
2023-03-29T20:31:34.015Z,13.13
2023-03-29T20:34:01.839Z,13.12
2023-03-29T20:36:31.725Z,13.13
2023-03-29T20:39:00.261Z,13.11
2023-03-29T20:41:28.070Z,13.10
2023-03-29T20:43:59.716Z,13.10
2023-03-29T20:46:33.286Z,13.10
2023-03-29T20:49:01.545Z,13.10
2023-03-29T20:51:32.061Z,13.09
2023-03-29T20:54:04.560Z,13.07
2023-03-29T20:56:34.312Z,13.07
2023-03-29T20:59:03.947Z,13.08
2023-03-29T21:01:31.813Z,13.03
2023-03-29T21:03:59.901Z,13.06
2023-03-29T21:06:28.021Z,13.05
2023-03-29T21:08:57.487Z,13.07
2023-03-29T21:11:25.649Z,13.06
2023-03-29T21:13:53.907Z,13.06
2023-03-29T21:16:21.739Z,13.07
2023-03-29T21:18:49.521Z,13.05
2023-03-29T21:21:17.410Z,13.06
2023-03-29T21:23:45.223Z,13.06
2023-03-29T21:26:16.462Z,13.06
2023-03-29T21:28:44.271Z,13.04
2023-03-29T21:31:12.067Z,13.04
2023-03-29T21:33:39.886Z,13.03
2023-03-29T21:36:08.253Z,13.04
2023-03-29T21:38:36.148Z,13.02
2023-03-29T21:41:04.065Z,13.02
2023-03-29T21:43:33.381Z,13.01
2023-03-29T21:46:01.279Z,13.00
2023-03-29T21:48:29.057Z,13.00
2023-03-29T21:50:56.789Z,12.99
2023-03-29T21:53:24.643Z,12.99
2023-03-29T21:55:52.753Z,12.98
2023-03-29T21:58:20.864Z,12.97
2023-03-29T22:00:50.004Z,12.96
2023-03-29T22:03:18.053Z,12.96
2023-03-29T22:05:57.163Z,12.95
2023-03-29T22:08:26.252Z,12.94
2023-03-29T22:10:56.999Z,12.93
2023-03-29T22:13:26.157Z,12.92
2023-03-29T22:15:59.627Z,12.92
2023-03-29T22:18:28.053Z,12.91
2023-03-29T22:20:55.914Z,12.91
2023-03-29T22:23:24.850Z,12.90
2023-03-29T22:25:52.677Z,12.90
2023-03-29T22:28:20.474Z,12.88
2023-03-29T22:30:48.223Z,12.88
2023-03-29T22:33:17.359Z,12.88
2023-03-29T22:35:45.134Z,12.87
2023-03-29T22:38:12.907Z,12.86
2023-03-29T22:40:41.169Z,12.85
2023-03-29T22:43:08.853Z,12.83
2023-03-29T22:45:37.068Z,12.83
2023-03-29T22:48:05.104Z,12.84
2023-03-29T22:50:34.232Z,12.83
2023-03-29T22:53:01.955Z,12.79
2023-03-29T22:55:29.781Z,12.82
2023-03-29T22:57:57.500Z,12.82
2023-03-29T23:00:25.224Z,12.82
2023-03-29T23:02:53.092Z,12.82
2023-03-29T23:05:21.096Z,12.81
2023-03-29T23:07:50.544Z,12.80
2023-03-29T23:10:18.473Z,12.80
2023-03-29T23:12:46.702Z,12.80
2023-03-29T23:15:14.560Z,12.79
2023-03-29T23:17:42.312Z,12.79
2023-03-29T23:20:11.386Z,12.79
2023-03-29T23:22:39.726Z,12.78
2023-03-29T23:25:09.751Z,12.78
2023-03-29T23:27:37.602Z,12.78
2023-03-29T23:30:07.519Z,12.76
2023-03-29T23:32:35.319Z,12.76
2023-03-29T23:35:04.474Z,12.75
2023-03-29T23:37:32.185Z,12.74
2023-03-29T23:39:59.926Z,12.74
2023-03-29T23:42:30.811Z,12.73
2023-03-29T23:44:58.546Z,12.73
2023-03-29T23:47:27.804Z,12.72
2023-03-29T23:49:55.765Z,12.71
2023-03-29T23:52:23.515Z,12.71
2023-03-29T23:54:51.516Z,12.70
2023-03-29T23:57:19.462Z,12.71
2023-03-29T23:59:52.790Z,12.63
